Latest Weather Observations for Moss Vale

IDN60801

Issued at 4:23 pm EDT Thursday 28 January 2021 (issued every 10 minutes, with the page automatically refreshed every 10 minutes)

About weather observations | Map of weather stations | Latest weather observations for NSW | Other Formats
Station Details ID: 068239 Name: MOSS VALE AWS Lat: -34.53 Lon: 150.42 Height: 678.4 m
Data from the previous 72 hours. | See also: Recent months at Moss Vale
Date/Time
EDT
Temp
°C
App
Temp
°C
Dew
Point
°C
Rel
Hum
%
Delta-T
°C
Wind Press
QNH
hPa
Press
MSL
hPa
Rain since
9am
mm
Dir  Spd
km/h
Gust
km/h
Spd
kts
Gust
kts
28/04:00pm 14.0 11.6 12.6 91 0.8 SE 17 20 9 11 1022.9 1019.7 0.4
28/03:55pm 14.1 11.7 12.7 91 0.8 SE 17 26 9 14 1023.0 1019.8 0.4
28/03:53pm 14.2 11.5 12.8 91 0.8 SE 19 26 10 14 1023.0 1019.8 0.4
28/03:43pm 14.3 11.4 12.9 91 0.8 ESE 20 30 11 16 1022.9 1019.7 0.4
28/03:38pm 14.1 11.1 12.7 91 0.8 ESE 20 30 11 16 1022.9 1019.7 0.4
28/03:30pm 14.1 10.8 12.8 92 0.7 ESE 22 30 12 16 1023.0 1019.8 0.4
28/03:00pm 14.7 12.1 13.1 90 0.9 SE 19 26 10 14 1023.1 1019.9 0.2
28/02:53pm 14.8 12.4 12.8 88 1.1 SE 17 26 9 14 1023.1 1019.9 0.2
28/02:37pm 14.5 11.0 12.2 86 1.3 SE 22 30 12 16 1023.3 1020.2 0.2
28/02:30pm 15.4 12.3 12.2 81 1.8 ESE 20 28 11 15 1023.3 1020.2 0.2
28/02:00pm 15.6 11.6 11.8 78 2.1 ESE 24 33 13 18 1023.4 1020.3 0.2
28/01:30pm 15.8 11.5 12.2 79 2.0 ESE 26 35 14 19 1023.1 1019.9 0.2
28/01:00pm 15.4 10.8 12.2 81 1.8 ESE 28 35 15 19 1023.4 1020.3 0.2
28/12:30pm 15.0 11.4 12.9 87 1.2 ESE 24 32 13 17 1023.5 1020.4 0.2
28/12:20pm 14.7 11.0 12.7 88 1.1 ESE 24 33 13 18 1023.7 1020.6 0.2
28/12:08pm 14.8 11.1 12.8 88 1.1 ESE 24 32 13 17 1023.9 1020.8 0.2
28/12:00pm 14.5 10.7 12.5 88 1.1 ESE 24 30 13 16 1023.9 1020.8 0.2
28/11:43am 14.6 10.4 12.3 86 1.3 ESE 26 35 14 19 1023.8 1020.7 0.2
28/11:30am 15.4 11.6 12.3 82 1.8 ESE 24 30 13 16 1023.8 1020.7 0.2
28/11:14am 15.8 12.9 14.0 89 1.1 ESE 22 32 12 17 1023.6 1020.5 0.2
28/11:00am 14.6 11.0 13.1 91 0.9 ESE 24 33 13 18 1023.7 1020.6 0.2
28/10:58am 14.6 11.1 13.3 92 0.7 ESE 24 33 13 18 1023.7 1020.6 0.2
28/10:30am 14.3 11.6 12.9 91 0.8 ESE 19 26 10 14 1023.7 1020.6 0.0
28/10:22am 14.6 11.9 13.0 90 0.9 SE 19 26 10 14 1023.7 1020.6 0.0
28/10:16am 14.8 12.6 13.2 90 0.9 SE 17 26 9 14 1023.6 1020.5 0.0
28/10:10am 14.7 11.9 13.1 90 0.9 SE 20 30 11 16 1023.5 1020.4 0.0
28/10:06am 14.9 11.8 13.3 90 0.9 SE 22 30 12 16 1023.4 1020.3 0.0
28/10:00am 14.8 12.0 13.3 91 0.9 SE 20 30 11 16 1023.3 1020.2 0.0
28/09:46am 14.5 12.2 13.0 91 0.9 ESE 17 26 9 14 1023.3 1020.2 0.0
28/09:41am 14.8 12.6 13.3 91 0.9 SE 17 26 9 14 1023.4 1020.3 0.0
28/09:32am 14.7 11.9 13.2 91 0.9 SE 20 28 11 15 1023.4 1020.3 0.0
28/09:30am 14.6 11.8 13.1 91 0.9 SE 20 28 11 15 1023.4 1020.3 0.0
28/09:24am 14.5 11.2 12.9 90 0.9 SE 22 32 12 17 1023.4 1020.3 0.0
28/09:00am 14.5 11.6 13.0 91 0.9 ESE 20 28 11 15 1023.2 1020.0 3.0
28/08:30am 14.5 10.9 13.2 92 0.7 ESE 24 32 13 17 1023.1 1019.9 3.0
28/08:24am 14.3 11.1 13.0 92 0.7 ESE 22 32 12 17 1022.9 1019.7 3.0
28/08:00am 14.2 11.5 12.8 91 0.8 ESE 19 30 10 16 1022.6 1019.4 3.0
28/07:57am 14.2 11.5 12.8 91 0.8 ESE 19 30 10 16 1022.6 1019.4 3.0
28/07:53am 14.2 11.2 12.6 90 0.9 ESE 20 30 11 16 1022.6 1019.4 3.0
28/07:30am 14.3 11.3 12.7 90 0.9 ESE 20 30 11 16 1022.3 1019.2 3.0
28/07:00am 14.1 11.3 12.5 90 0.9 ESE 19 26 10 14 1022.0 1018.9 3.0
28/06:50am 14.1 11.7 12.7 91 0.8 ESE 17 24 9 13 1022.0 1018.9 3.0
28/06:30am 14.1 11.1 12.7 91 0.8 ESE 20 30 11 16 1021.8 1018.6 3.0
28/06:00am 14.1 11.8 13.0 93 0.6 ESE 17 26 9 14 1021.6 1018.4 3.0
28/05:50am 14.2 11.6 13.1 93 0.6 ESE 19 26 10 14 1021.3 1018.1 3.0
28/05:38am 14.1 11.8 13.0 93 0.6 SE 17 24 9 13 1021.1 1017.9 3.0
28/05:30am 14.2 11.5 12.9 92 0.7 SE 19 28 10 15 1020.8 1017.7 3.0
28/05:17am 14.2 11.3 12.9 92 0.7 SE 20 28 11 15 1020.8 1017.7 3.0
28/05:00am 14.2 11.5 12.9 92 0.7 ESE 19 28 10 15 1020.8 1017.7 3.0
28/04:40am 14.1 10.4 12.8 92 0.7 ESE 24 33 13 18 1020.5 1017.3 3.0
28/04:30am 14.2 11.4 13.1 93 0.6 ESE 20 30 11 16 1020.4 1017.2 3.0
28/04:00am 14.2 11.4 13.2 94 0.6 ESE 20 28 11 15 1020.3 1017.1 3.0
28/03:37am 14.3 11.6 13.5 95 0.5 SE 20 30 11 16 1020.4 1017.2 3.0
28/03:35am 14.2 11.5 13.4 95 0.5 SE 20 30 11 16 1020.4 1017.2 3.0
28/03:30am 14.2 11.5 13.4 95 0.5 SE 20 28 11 15 1020.5 1017.3 3.0
28/03:19am 14.3 11.8 13.5 95 0.5 SE 19 24 10 13 1020.6 1017.5 3.0
28/03:16am 14.3 11.8 13.5 95 0.5 SE 19 24 10 13 1020.6 1017.5 3.0
28/03:03am 14.3 12.2 13.5 95 0.5 ESE 17 26 9 14 1020.6 1017.5 3.0
28/03:00am 14.2 12.0 13.4 95 0.5 ESE 17 26 9 14 1020.7 1017.6 3.0
28/02:30am 14.3 11.8 13.5 95 0.5 ESE 19 26 10 14 1020.8 1017.7 2.8
28/02:16am 14.3 12.2 13.7 96 0.3 ESE 17 26 9 14 1021.1 1017.9 2.8
28/02:11am 14.3 12.2 13.7 96 0.3 ESE 17 28 9 15 1021.1 1017.9 2.8
28/02:00am 14.1 12.0 13.5 96 0.3 ESE 17 20 9 11 1020.9 1017.8 2.8
28/01:57am 14.1 12.0 13.5 96 0.3 ESE 17 20 9 11 1020.8 1017.7 2.8
28/01:53am 14.1 12.0 13.5 96 0.3 ESE 17 24 9 13 1020.8 1017.7 2.8
28/01:30am 14.0 11.3 13.4 96 0.3 SE 20 30 11 16 1021.1 1017.9 2.8
28/01:00am 15.2 12.5 14.7 97 0.3 ESE 22 33 12 18 1020.6 1017.5 2.6
28/12:30am 15.2 13.5 14.7 97 0.3 SE 17 22 9 12 1020.5 1017.3 2.4
28/12:00am 15.0 13.2 14.5 97 0.3 ESE 17 24 9 13 1020.7 1017.6 2.4
 
Date/Time
EDT
Temp
°C
App
Temp
°C
Dew
Point
°C
Rel
Hum
%
Delta-T
°C
Wind Press
QNH
hPa
Press
MSL
hPa
Rain since
9am
mm
Dir  Spd
km/h
Gust
km/h
Spd
kts
Gust
kts
27/11:30pm 14.8 12.4 14.3 97 0.3 ESE 20 33 11 18 1020.7 1017.6 2.4
27/11:00pm 14.9 14.2 14.4 97 0.3 SE 11 20 6 11 1020.8 1017.7 2.2
27/10:38pm 14.8 13.7 14.3 97 0.3 ESE 13 19 7 10 1020.8 1017.7 2.2
27/10:37pm 14.8 13.7 14.3 97 0.3 ESE 13 19 7 10 1020.8 1017.7 2.2
27/10:30pm 14.7 13.2 14.2 97 0.3 ESE 15 20 8 11 1020.8 1017.7 2.2
27/10:00pm 14.3 13.4 13.8 97 0.3 SE 11 15 6 8 1020.5 1017.3 2.2
27/09:30pm 14.0 13.4 13.5 97 0.3 SE 9 15 5 8 1020.3 1017.1 2.2
27/09:00pm 13.9 12.9 13.4 97 0.3 SE 11 15 6 8 1020.1 1016.9 2.0
27/08:30pm 13.8 11.2 13.3 97 0.3 SSE 19 26 10 14 1019.6 1016.4 2.0
27/08:00pm 13.8 11.6 13.2 96 0.3 SSE 17 22 9 12 1019.5 1016.3 1.8
27/07:30pm 13.9 11.7 13.3 96 0.3 SSE 17 24 9 13 1019.1 1015.9 1.8
27/07:00pm 14.1 11.6 13.5 96 0.3 SSE 19 28 10 15 1018.6 1015.4 1.6
27/06:30pm 14.1 11.0 13.5 96 0.3 SSE 22 32 12 17 1018.1 1014.9 1.6
27/06:00pm 14.2 11.5 13.6 96 0.3 S 20 28 11 15 1017.9 1014.6 1.6
27/05:54pm 14.2 11.5 13.6 96 0.3 S 20 26 11 14 1017.7 1014.5 1.4
27/05:38pm 14.4 11.4 13.8 96 0.3 SSE 22 30 12 16 1017.6 1014.4 1.4
27/05:30pm 14.5 11.9 13.9 96 0.3 S 20 28 11 15 1017.5 1014.3 1.4
27/05:04pm 14.5 12.1 13.7 95 0.5 S 19 26 10 14 1017.3 1014.1 1.4
27/05:02pm 14.4 11.9 13.6 95 0.5 S 19 26 10 14 1017.4 1014.2 1.4
27/05:00pm 14.5 12.1 13.7 95 0.5 S 19 26 10 14 1017.4 1014.2 1.4
27/04:30pm 14.3 11.8 13.5 95 0.5 S 19 30 10 16 1017.5 1014.3 1.4
27/04:00pm 14.5 12.4 13.7 95 0.5 S 17 22 9 12 1017.5 1014.3 0.4
27/03:30pm 14.6 11.9 13.5 93 0.6 SSE 20 30 11 16 1017.5 1014.3 0.0
27/03:00pm 14.7 11.3 13.6 93 0.6 SSE 24 32 13 17 1017.3 1014.1 0.0
27/02:30pm 15.0 11.2 13.5 91 0.9 SE 26 43 14 23 1017.1 1013.9 0.0
27/02:00pm 15.6 13.1 14.1 91 0.9 SSE 20 28 11 15 1017.0 1013.8 0.0
27/01:30pm 15.4 12.1 14.1 92 0.8 SSE 24 32 13 17 1016.9 1013.7 0.0
27/01:19pm 15.9 12.3 14.3 90 0.9 SE 26 43 14 23 1016.9 1013.7 0.0
27/01:15pm 15.9 11.9 14.1 89 1.1 SE 28 43 15 23 1016.8 1013.6 0.0
27/01:00pm 15.9 12.0 14.4 91 0.9 SE 28 43 15 23 1016.8 1013.6 0.0
27/12:54pm 15.9 11.6 14.3 90 0.9 SSE 30 44 16 24 1016.6 1013.3 0.0
27/12:30pm 16.4 12.6 14.6 89 1.1 SE 28 43 15 23 1016.3 1013.0 0.0
27/12:25pm 16.4 11.9 14.8 90 1.0 SE 32 50 17 27 1016.3 1013.0 0.0
27/12:17pm 16.5 11.4 14.9 90 1.0 SE 35 50 19 27 1016.4 1013.1 0.0
27/12:08pm 16.5 11.9 14.7 89 1.1 SSE 32 50 17 27 1016.1 1012.9 0.0
27/12:00pm 16.5 12.4 14.9 90 1.0 SSE 30 43 16 23 1016.3 1013.0 0.0
27/11:59am 16.5 12.4 14.9 90 1.0 SSE 30 43 16 23 1016.1 1012.9 0.0
27/11:31am 16.4 11.8 14.6 89 1.1 SSE 32 50 17 27 1015.9 1012.7 0.0
27/11:30am 16.6 12.5 15.0 90 1.0 SSE 30 41 16 22 1015.9 1012.7 0.0
27/11:15am 16.7 12.8 15.4 92 0.8 SSE 30 48 16 26 1015.7 1012.5 0.0
27/11:00am 16.8 13.0 15.8 94 0.6 SE 30 43 16 23 1015.6 1012.4 0.0
27/10:52am 16.3 12.7 15.3 94 0.6 SSE 28 43 15 23 1015.6 1012.4 0.0
27/10:30am 16.4 14.1 15.6 95 0.5 SSE 22 32 12 17 1015.6 1012.4 0.0
27/10:00am 16.3 13.6 15.7 96 0.4 SE 24 35 13 19 1015.3 1012.0 0.0
27/09:30am 16.1 13.4 15.5 96 0.4 SSE 24 32 13 17 1015.0 1011.7 0.0
27/09:00am 15.8 12.6 15.2 96 0.4 SSE 26 43 14 23 1014.6 1011.4 5.8
27/08:30am 15.8 14.3 15.3 97 0.3 SSE 17 22 9 12 1014.4 1011.2 5.8
27/08:00am 15.6 13.5 15.1 97 0.3 SSE 20 26 11 14 1014.0 1010.8 5.8
27/07:30am 15.6 13.7 15.1 97 0.3 SSE 19 26 10 14 1013.5 1010.2 5.8
27/07:00am 15.4 13.2 14.9 97 0.3 SSE 20 32 11 17 1012.9 1009.7 5.8
27/06:30am 15.3 13.2 14.8 97 0.3 SSE 19 26 10 14 1012.4 1009.1 5.8
27/06:26am 15.3 13.1 14.8 97 0.3 SSE 20 30 11 16 1012.3 1009.0 5.8
27/06:02am 15.3 13.2 14.8 97 0.3 SSE 19 26 10 14 1012.0 1008.7 5.8
27/06:00am 15.3 13.2 14.8 97 0.3 SSE 19 26 10 14 1012.0 1008.7 5.8
27/05:30am 15.5 13.5 15.0 97 0.3 SSE 19 26 10 14 1011.7 1008.4 5.8
27/05:00am 15.6 13.1 15.1 97 0.3 SSE 22 35 12 19 1011.0 1007.7 5.8
27/04:32am 15.8 12.6 15.3 97 0.3 SE 26 33 14 18 1010.7 1007.4 5.8
27/04:30am 15.8 12.6 15.3 97 0.3 SSE 26 37 14 20 1010.7 1007.4 5.8
27/04:29am 15.8 12.6 15.3 97 0.3 SSE 26 37 14 20 1010.7 1007.4 5.8
27/04:00am 16.5 14.7 16.0 97 0.3 SE 20 30 11 16 1010.4 1007.1 5.8
27/03:30am 17.0 15.0 16.5 97 0.3 SE 22 32 12 17 1009.8 1006.5 5.8
27/03:00am 18.0 17.4 17.5 97 0.3 SE 17 24 9 13 1010.1 1006.8 5.8
27/02:30am 18.2 17.2 17.6 96 0.4 SSE 19 28 10 15 1010.0 1006.6 5.8
27/02:00am 18.6 17.8 17.9 96 0.4 SSE 19 24 10 13 1009.8 1006.5 5.8
27/01:30am 19.0 18.7 18.3 96 0.4 SSE 17 20 9 11 1009.8 1006.5 5.8
27/01:17am 19.0 18.7 18.2 95 0.5 SSE 17 20 9 11 1009.8 1006.5 5.8
27/01:00am 19.0 19.4 18.2 95 0.5 SSE 13 17 7 9 1009.7 1006.4 5.8
27/12:30am 19.0 19.0 18.2 95 0.5 SSE 15 20 8 11 1009.7 1006.4 5.8
27/12:00am 19.1 18.7 18.1 94 0.6 SSE 17 24 9 13 1009.7 1006.4 5.8
 
Date/Time
EDT
Temp
°C
App
Temp
°C
Dew
Point
°C
Rel
Hum
%
Delta-T
°C
Wind Press
QNH
hPa
Press
MSL
hPa
Rain since
9am
mm
Dir  Spd
km/h
Gust
km/h
Spd
kts
Gust
kts
26/11:44pm 19.2 18.8 18.0 93 0.8 S 17 24 9 13 1009.7 1006.4 5.8
26/11:30pm 19.4 18.6 18.1 92 0.8 S 19 22 10 12 1009.4 1006.1 5.8
26/11:00pm 19.5 19.8 17.8 90 1.1 S 13 15 7 8 1009.2 1005.9 5.8
26/10:30pm 19.8 21.2 17.9 89 1.2 NE 7 13 4 7 1008.9 1005.6 5.8
26/10:00pm 19.4 19.8 18.1 92 0.8 ENE 13 15 7 8 1008.9 1005.6 5.6
26/09:57pm 19.4 19.8 18.1 92 0.8 ENE 13 19 7 10 1008.9 1005.6 5.6
26/09:30pm 19.7 19.6 17.8 89 1.2 ENE 15 19 8 10 1008.7 1005.3 2.6
26/09:06pm 20.3 21.4 17.9 86 1.5 SE 9 11 5 6 1009.0 1005.7 0.4
26/09:00pm 20.3 21.7 17.7 85 1.7 SE 7 9 4 5 1008.9 1005.6 0.2
26/08:30pm 20.6 20.8 17.6 83 1.9 SW 13 15 7 8 1008.0 1004.7 0.2
26/08:00pm 22.2 20.3 16.7 71 3.5 WSW 22 32 12 17 1007.8 1004.5 0.0
26/07:30pm 23.4 19.9 15.5 61 4.9 WSW 28 43 15 23 1007.1 1003.7 0.0
26/07:23pm 24.1 20.4 15.1 57 5.5 WSW 28 43 15 23 1006.9 1003.5 0.0
26/07:00pm 25.5 23.6 14.3 50 6.9 WSW 17 24 9 13 1006.0 1002.6 0.0
26/06:30pm 26.1 24.6 14.2 48 7.3 WNW 15 20 8 11 1005.7 1002.3 0.0
26/06:00pm 27.8 23.9 12.2 38 9.3 W 24 33 13 18 1005.1 1001.8 0.0
26/05:30pm 29.1 26.4 11.6 33 10.4 W 17 28 9 15 1004.8 1001.5 0.0
26/05:00pm 29.8 26.4 11.3 32 11.0 NW 20 35 11 19 1004.6 1001.2 0.0
26/04:30pm 30.6 27.7 13.0 34 10.8 NNW 20 30 11 16 1004.5 1001.1 0.0
26/04:00pm 29.7 26.8 12.2 34 10.6 N 19 24 10 13 1004.4 1001.0 0.0
26/03:30pm 29.5 26.3 11.1 32 10.9 NNW 19 26 10 14 1004.6 1001.2 0.0
26/03:00pm 30.9 27.1 11.3 30 11.7 WNW 22 32 12 17 1004.8 1001.5 0.0
26/02:30pm 31.2 27.0 11.1 29 12.0 NW 24 39 13 21 1005.0 1001.7 0.0
26/02:00pm 30.8 27.5 11.7 31 11.5 WNW 20 32 11 17 1005.0 1001.7 0.0
26/01:30pm 32.2 28.6 12.9 31 11.9 WNW 24 35 13 19 1005.0 1001.7 0.0
26/01:00pm 30.8 25.0 10.7 29 11.9 W 32 44 17 24 1005.0 1001.7 0.0
26/12:30pm 31.5 26.2 11.3 29 12.1 WNW 30 44 16 24 1005.4 1002.0 0.0
26/12:00pm 29.5 22.9 10.1 30 11.3 WNW 35 56 19 30 1005.6 1002.2 0.0
26/11:51am 30.5 24.4 10.5 29 11.8 WNW 33 56 18 30 1005.4 1002.0 0.0
26/11:30am 30.6 24.9 11.1 30 11.6 WNW 32 48 17 26 1005.5 1002.1 0.0
26/11:13am 30.5 25.5 11.0 30 11.6 NW 28 46 15 25 1005.5 1002.1 0.0
26/11:00am 30.1 24.8 11.1 31 11.3 NW 30 44 16 24 1005.6 1002.2 0.0
26/10:30am 28.1 23.8 10.8 34 10.1 NW 24 35 13 19 1005.9 1002.5 0.0
26/10:00am 28.7 23.4 11.3 34 10.3 WNW 30 41 16 22 1006.2 1002.9 0.0
26/09:30am 27.9 23.6 10.6 34 10.1 WNW 24 41 13 22 1006.2 1002.9 0.0
26/09:00am 27.5 24.6 12.3 39 9.1 WNW 19 26 10 14 1006.3 1003.0 0.0
26/08:30am 26.1 24.5 12.9 44 7.9 NW 13 19 7 10 1006.2 1002.9 0.0
26/08:00am 24.3 23.7 13.5 51 6.5 NW 9 15 5 8 1006.1 1002.8 0.0
26/07:30am 21.9 22.0 13.8 60 4.8 NNW 6 9 3 5 1006.0 1002.6 0.0
26/07:00am 19.9 18.3 12.9 64 4.1 NW 13 17 7 9 1005.7 1002.3 0.0
26/06:30am 19.4 18.0 12.2 63 4.1 NW 11 15 6 8 1005.5 1002.1 0.0
26/06:00am 20.4 19.2 12.9 62 4.4 NW 11 15 6 8 1005.4 1002.0 0.0
26/05:30am 18.9 17.9 12.4 66 3.7 WNW 9 13 5 7 1005.1 1001.8 0.0
26/05:00am 19.4 18.5 12.7 65 3.9 W 9 11 5 6 1004.9 1001.6 0.0
26/04:30am 19.9 19.6 13.4 66 3.8 NW 7 9 4 5 1004.9 1001.6 0.0
26/04:00am 19.0 18.4 13.4 70 3.3 WNW 9 11 5 6 1005.1 1001.8 0.0
26/03:30am 19.9 19.8 13.8 68 3.6 NW 7 11 4 6 1005.4 1002.0 0.0
26/03:00am 19.5 20.0 13.9 70 3.3 N 4 6 2 3 1005.7 1002.3 0.0
26/02:30am 20.6 20.3 14.3 67 3.8 N 9 11 5 6 1006.0 1002.6 0.0
26/02:00am 20.7 20.5 14.6 68 3.7 N 9 11 5 6 1006.4 1003.1 0.0
26/01:30am 20.3 20.0 14.4 69 3.5 N 9 11 5 6 1006.9 1003.5 0.0
26/01:00am 19.4 19.2 13.6 69 3.4 N 7 11 4 6 1007.2 1003.8 0.0
26/12:30am 21.0 20.3 14.4 66 4.0 NNW 11 15 6 8 1007.4 1004.0 0.0
26/12:00am 19.6 18.7 13.8 69 3.4 NNE 11 15 6 8 1007.6 1004.3 0.0
 
Date/Time
EDT
Temp
°C
App
Temp
°C
Dew
Point
°C
Rel
Hum
%
Delta-T
°C
Wind Press
QNH
hPa
Press
MSL
hPa
Rain since
9am
mm
Dir  Spd
km/h
Gust
km/h
Spd
kts
Gust
kts
25/11:30pm 19.9 18.6 13.8 68 3.6 NNE 13 17 7 9 1007.7 1004.4 0.0
25/11:00pm 20.9 19.0 14.1 65 4.1 NNE 17 22 9 12 1007.9 1004.6 0.0
25/10:30pm 21.2 19.5 13.6 62 4.5 NE 15 20 8 11 1008.0 1004.7 0.0
25/10:00pm 21.7 20.0 12.5 56 5.4 NE 13 19 7 10 1008.0 1004.7 0.0
25/09:30pm 22.1 19.7 11.5 51 6.1 NNE 15 20 8 11 1007.8 1004.5 0.0
25/09:00pm 23.1 20.1 11.8 49 6.6 NNE 19 24 10 13 1007.4 1004.0 0.0
25/08:30pm 24.2 20.4 12.5 48 6.9 NNE 24 32 13 17 1007.2 1003.8 0.0
25/08:00pm 25.5 21.6 12.0 43 8.0 NNE 24 35 13 19 1007.1 1003.7 0.0
25/07:30pm 26.7 22.4 10.8 37 9.2 NE 24 30 13 16 1007.1 1003.7 0.0
25/07:00pm 28.2 24.4 11.3 35 10.0 NE 22 33 12 18 1007.1 1003.7 0.0
25/06:30pm 29.4 26.4 13.6 38 9.7 NE 22 30 12 16 1007.0 1003.6 0.0
25/06:00pm 30.7 26.8 12.1 32 11.3 NE 24 35 13 19 1007.0 1003.6 0.0
25/05:30pm 31.8 26.0 8.1 23 13.5 NE 28 39 15 21 1007.2 1003.8 0.0
25/05:00pm 32.6 28.1 10.0 25 13.3 NE 24 32 13 17 - - 0.0
25/04:30pm 32.9 27.9 9.7 24 13.6 NE 26 39 14 21 1007.8 1004.5 0.0

Other formats

Comma delimited format used in spreadsheet applications
http://www.bom.gov.au/fwo/IDN60801/IDN60801.94746.axf

JavaScript Object Notation format (JSON) in row-major order
http://www.bom.gov.au/fwo/IDN60801/IDN60801.94746.json

Data quality

Most of these data are generated automatically and are frequently updated. Quality checks on data are not normally performed. It is possible for incorrect values to appear. Refer to information at About Latest Weather Observations and please check the disclaimer before using these data.